Roberval, Canada
Current Conditions -  °F | °C
As of 6:00 PM on Wednesday 26 Nov 2014 (Local Time) from CYRJ Reporting Station
Overcast Overcast  
Wind Chill: 17°   Ceiling: 3500
Heat Index: 25°   Visibility: 20mi
Dew Point: 14°   Wind: 7mph
Humidity: 64%   Direction: 340°NNW
Pressure: 30.23"   Gusts: NA
Location:  48.52°N, 72.22°W
Report Text: CYRJ 262300Z 34006KT 20SM OVC035 M04/M10 A3023 RMK SC8 SLP248
Loading
Personal Weather Stations






























Interactive Weather Map New forecast layout! Learn more

10-Day Weather Forecast

Advertisements
Track Severe Weather on mobile